Wabash, Nebraska
Current Conditions -  °F | °C
As of 7:35 PM on Wednesday 22 Oct 2014 (Local Time) from KPMV Reporting Station
Overcast Overcast  
Wind Chill: 69°   Ceiling: 6000
Heat Index: 69°   Visibility: 10mi
Dew Point: 52°   Wind: 8mph
Humidity: 55%   Direction: 270°W
Pressure: 30.05"   Gusts: NA
Location:  40.9139°N, 96.2935°W
Report Text: KPMV 230035Z AUTO 27007KT 10SM BKN060 BKN075 OVC120 21/11 A3005 RMK AO2 T02050113
Loading
Personal Weather Stations






























Interactive Weather Map
Tropical Storm Tracking
New forecast layout! Learn more

10-Day Weather Forecast

Advertisements
Track Severe Weather on mobile